LIME METAR and TAF | Updated Today

LIME METAR

Il Caravaggio International Airport

Observation time: 14 min. ago

LIME 200620Z AUTO VRB02KT 9999 NCD 21/12 Q1027

Need help? Read our tutorial on how to read METARs or read the parsed version below.

Il Caravaggio International Airport (LIME) METAR

  • Weather conditions on Fri, 20 May 2022 06:20:00 +0000 (14 min. ago):
  • Present conditions: Dry
  • Clouds: Nil cloud detected
  • Visibility: Greater than 10 km
  • Wind: Variable at 2 knots
  • Temperature: 21 celsius
  • Dew point: 12 celsius
  • Pressure: 1027 millibars
  • Remarks: None


Useful to know...

LIME TAF

Il Caravaggio International Airport

TAF LIME 200500Z 2006/2106 VRB05KT CAVOK BECMG 2009/2011 24010KT BECMG 2019/2021 VRB05KT
Observation time: 1:34 hr. ago
Need help? Read our tutorial on how to read TAFs or read the parsed version below.

Parsed version of TAF for Il Caravaggio International Airport (LIME)

  • From 20 May at 06:00 UTC, to day 21 of the month at 06:00 UTC
  • Visibility: Greater than 10 km
  • Wind: Variable at 5
  • Expected to arise soon, from 20 May at 09:00 UTC, to day 20 of the month at 11:00 UTC
  • Wind: 240 degrees at 10
  • Expected to arise soon, from 20 May at 19:00 UTC, to day 20 of the month at 21:00 UTC
  • Wind: Variable at 5